PGT1794 LTFJ-LTFE
Flight info
| Callsign | PGT1794 |
|---|---|
| Flight time | 0h 53m |
| Altitude | 26000 |
| Route | ROXUK T409 NUMTI DCT KULAR T44 KAVAK |
| Aircraft | A320/M-SDE3FGHIRWY/LB1 |
Departure
| Time | 2026-04-29 09:01 |
|---|---|
| Airport | Istanbul Sabiha Gökçen International Airport (LTFJ) |
Arrival
| Time | 2026-04-29 09:54 |
|---|---|
| Airport | Milas Bodrum International Airport (LTFE) |
| Time | Latitude | Longitude | Altitude | Speed | Heading |
|---|---|---|---|---|---|
| 2026-04-29 08:40 | 40.90608 | 29.31631 | 320 ft | 0 kts | 334° |
| 2026-04-29 08:50 | 40.90598 | 29.31637 | 319 ft | 3 kts | 334° |
| 2026-04-29 08:51 | 40.90583 | 29.31647 | 319 ft | 3 kts | 334° |
| 2026-04-29 08:51 | 40.90567 | 29.31657 | 318 ft | 3 kts | 335° |
| 2026-04-29 08:51 | 40.90552 | 29.31668 | 319 ft | 2 kts | 289° |
| 2026-04-29 08:51 | 40.90550 | 29.31682 | 318 ft | 0 kts | 248° |
| 2026-04-29 08:52 | 40.90533 | 29.31634 | 319 ft | 9 kts | 242° |
| 2026-04-29 08:53 | 40.90504 | 29.31565 | 321 ft | 8 kts | 241° |
| 2026-04-29 08:53 | 40.90480 | 29.31507 | 321 ft | 7 kts | 241° |
| 2026-04-29 08:53 | 40.90456 | 29.31460 | 321 ft | 5 kts | 219° |
| 2026-04-29 08:53 | 40.90425 | 29.31454 | 321 ft | 4 kts | 173° |
| 2026-04-29 08:54 | 40.90385 | 29.31472 | 321 ft | 8 kts | 162° |
| 2026-04-29 08:54 | 40.90322 | 29.31495 | 321 ft | 10 kts | 173° |
| 2026-04-29 08:54 | 40.90264 | 29.31451 | 320 ft | 12 kts | 234° |
| 2026-04-29 08:54 | 40.90220 | 29.31340 | 320 ft | 16 kts | 244° |
| 2026-04-29 08:55 | 40.90174 | 29.31219 | 321 ft | 14 kts | 243° |
| 2026-04-29 08:55 | 40.90134 | 29.31111 | 320 ft | 12 kts | 243° |
| 2026-04-29 08:55 | 40.90099 | 29.31018 | 321 ft | 11 kts | 243° |
| 2026-04-29 08:55 | 40.90068 | 29.30936 | 321 ft | 9 kts | 243° |
| 2026-04-29 08:56 | 40.90041 | 29.30864 | 321 ft | 8 kts | 243° |
| 2026-04-29 08:56 | 40.90008 | 29.30778 | 319 ft | 13 kts | 243° |
| 2026-04-29 08:56 | 40.89961 | 29.30653 | 320 ft | 18 kts | 243° |
| 2026-04-29 08:56 | 40.89901 | 29.30486 | 320 ft | 23 kts | 245° |
| 2026-04-29 08:57 | 40.89831 | 29.30290 | 320 ft | 24 kts | 244° |
| 2026-04-29 08:57 | 40.89756 | 29.30087 | 321 ft | 25 kts | 244° |
| 2026-04-29 08:57 | 40.89675 | 29.29872 | 319 ft | 27 kts | 244° |
| 2026-04-29 08:57 | 40.89592 | 29.29645 | 319 ft | 28 kts | 244° |
| 2026-04-29 08:58 | 40.89510 | 29.29428 | 321 ft | 23 kts | 243° |
| 2026-04-29 08:58 | 40.89456 | 29.29288 | 320 ft | 9 kts | 243° |
| 2026-04-29 08:58 | 40.89411 | 29.29244 | 321 ft | 7 kts | 185° |
| 2026-04-29 08:58 | 40.89374 | 29.29261 | 320 ft | 3 kts | 149° |
| 2026-04-29 08:59 | 40.89370 | 29.29264 | 320 ft | 0 kts | 149° |
| 2026-04-29 08:59 | 40.89359 | 29.29273 | 320 ft | 10 kts | 150° |
| 2026-04-29 08:59 | 40.89295 | 29.29325 | 322 ft | 10 kts | 133° |
| 2026-04-29 09:00 | 40.89302 | 29.29414 | 321 ft | 11 kts | 65° |
| 2026-04-29 09:00 | 40.89312 | 29.29443 | 322 ft | 0 kts | 64° |
| 2026-04-29 09:00 | 40.89323 | 29.29471 | 322 ft | 20 kts | 64° |
| 2026-04-29 09:00 | 40.89521 | 29.30013 | 321 ft | 108 kts | 64° |
| 2026-04-29 09:01 | 40.89954 | 29.31201 | 318 ft | 174 kts | 64° |
| 2026-04-29 09:01 | 40.90538 | 29.32788 | 692 ft | 199 kts | 63° |
| 2026-04-29 09:01 | 40.91152 | 29.34440 | 1710 ft | 206 kts | 63° |
| 2026-04-29 09:01 | 40.91813 | 29.36236 | 2363 ft | 228 kts | 64° |
| 2026-04-29 09:02 | 40.92526 | 29.38178 | 3068 ft | 239 kts | 64° |
| 2026-04-29 09:02 | 40.93235 | 29.40163 | 3911 ft | 244 kts | 69° |
| 2026-04-29 09:02 | 40.93380 | 29.42402 | 4770 ft | 253 kts | 102° |
| 2026-04-29 09:02 | 40.92468 | 29.44452 | 5472 ft | 270 kts | 138° |
| 2026-04-29 09:03 | 40.90841 | 29.45762 | 6304 ft | 278 kts | 155° |
| 2026-04-29 09:03 | 40.89011 | 29.46674 | 7130 ft | 284 kts | 161° |
| 2026-04-29 09:03 | 40.87126 | 29.47506 | 7934 ft | 288 kts | 161° |
| 2026-04-29 09:03 | 40.85214 | 29.48406 | 8752 ft | 293 kts | 159° |
| 2026-04-29 09:04 | 40.83304 | 29.49407 | 9556 ft | 298 kts | 157° |
| 2026-04-29 09:04 | 40.81381 | 29.50511 | 10271 ft | 308 kts | 156° |
| 2026-04-29 09:04 | 40.79364 | 29.51740 | 10536 ft | 331 kts | 154° |
| 2026-04-29 09:04 | 40.77356 | 29.53407 | 10875 ft | 350 kts | 141° |
| 2026-04-29 09:05 | 40.75594 | 29.55655 | 11512 ft | 356 kts | 129° |
| 2026-04-29 09:05 | 40.74083 | 29.58277 | 12220 ft | 360 kts | 126° |
| 2026-04-29 09:05 | 40.72573 | 29.60934 | 12929 ft | 364 kts | 127° |
| 2026-04-29 09:05 | 40.71010 | 29.63590 | 13618 ft | 369 kts | 131° |
| 2026-04-29 09:06 | 40.69103 | 29.65879 | 14252 ft | 373 kts | 145° |
| 2026-04-29 09:06 | 40.66835 | 29.67548 | 14875 ft | 375 kts | 159° |
| 2026-04-29 09:06 | 40.64327 | 29.68511 | 15497 ft | 376 kts | 173° |
| 2026-04-29 09:06 | 40.61719 | 29.68737 | 16145 ft | 377 kts | 183° |
| 2026-04-29 09:07 | 40.59084 | 29.68722 | 16790 ft | 380 kts | 183° |
| 2026-04-29 09:07 | 40.56428 | 29.68711 | 17406 ft | 383 kts | 183° |
| 2026-04-29 09:07 | 40.53751 | 29.68702 | 18023 ft | 386 kts | 183° |
| 2026-04-29 09:07 | 40.51056 | 29.68695 | 18603 ft | 389 kts | 183° |
| 2026-04-29 09:08 | 40.48340 | 29.68690 | 19125 ft | 392 kts | 183° |
| 2026-04-29 09:08 | 40.45598 | 29.68685 | 19644 ft | 395 kts | 183° |
| 2026-04-29 09:08 | 40.42835 | 29.68679 | 20140 ft | 399 kts | 183° |
| 2026-04-29 09:08 | 40.40088 | 29.68670 | 20617 ft | 402 kts | 184° |
| 2026-04-29 09:09 | 40.37281 | 29.68656 | 21119 ft | 405 kts | 184° |
| 2026-04-29 09:09 | 40.34450 | 29.68643 | 21618 ft | 408 kts | 184° |
| 2026-04-29 09:09 | 40.31592 | 29.68635 | 22108 ft | 411 kts | 184° |
| 2026-04-29 09:09 | 40.28721 | 29.68629 | 22567 ft | 414 kts | 184° |
| 2026-04-29 09:10 | 40.25818 | 29.68625 | 23027 ft | 418 kts | 184° |
| 2026-04-29 09:10 | 40.22900 | 29.68621 | 23487 ft | 421 kts | 184° |
| 2026-04-29 09:10 | 40.19963 | 29.68616 | 23893 ft | 424 kts | 184° |
| 2026-04-29 09:10 | 40.17004 | 29.68670 | 24268 ft | 429 kts | 180° |
| 2026-04-29 09:11 | 40.14013 | 29.69006 | 24660 ft | 432 kts | 179° |
| 2026-04-29 09:11 | 40.11015 | 29.69351 | 25028 ft | 434 kts | 179° |
| 2026-04-29 09:11 | 40.07994 | 29.69699 | 25408 ft | 437 kts | 179° |
| 2026-04-29 09:11 | 40.04952 | 29.70047 | 25762 ft | 440 kts | 179° |
| 2026-04-29 09:12 | 40.01896 | 29.70396 | 26054 ft | 442 kts | 179° |
| 2026-04-29 09:12 | 39.98843 | 29.70744 | 26117 ft | 436 kts | 179° |
| 2026-04-29 09:12 | 39.95843 | 29.71087 | 26126 ft | 430 kts | 179° |
| 2026-04-29 09:12 | 39.92870 | 29.71326 | 26119 ft | 425 kts | 185° |
| 2026-04-29 09:13 | 39.89949 | 29.70971 | 26118 ft | 419 kts | 195° |
| 2026-04-29 09:13 | 39.87160 | 29.69971 | 26106 ft | 413 kts | 206° |
| 2026-04-29 09:13 | 39.84585 | 29.68393 | 26120 ft | 407 kts | 215° |
| 2026-04-29 09:13 | 39.82165 | 29.66486 | 26106 ft | 406 kts | 216° |
| 2026-04-29 09:14 | 39.79745 | 29.64583 | 26113 ft | 407 kts | 216° |
| 2026-04-29 09:14 | 39.77321 | 29.62686 | 26105 ft | 407 kts | 216° |
| 2026-04-29 09:14 | 39.74888 | 29.60793 | 26100 ft | 407 kts | 215° |
| 2026-04-29 09:14 | 39.72455 | 29.58904 | 26111 ft | 407 kts | 215° |
| 2026-04-29 09:15 | 39.70027 | 29.57019 | 26100 ft | 407 kts | 215° |
| 2026-04-29 09:15 | 39.67598 | 29.55132 | 26090 ft | 407 kts | 216° |
| 2026-04-29 09:15 | 39.65170 | 29.53244 | 26082 ft | 407 kts | 215° |
| 2026-04-29 09:15 | 39.62748 | 29.51335 | 26079 ft | 407 kts | 216° |
| 2026-04-29 09:16 | 39.60399 | 29.49382 | 26081 ft | 406 kts | 218° |
| 2026-04-29 09:16 | 39.58049 | 29.47354 | 26086 ft | 406 kts | 218° |
| 2026-04-29 09:16 | 39.55709 | 29.45306 | 26082 ft | 405 kts | 218° |
| 2026-04-29 09:16 | 39.53373 | 29.43262 | 26084 ft | 405 kts | 218° |
| 2026-04-29 09:17 | 39.51032 | 29.41227 | 26070 ft | 405 kts | 218° |
| 2026-04-29 09:17 | 39.48680 | 29.39204 | 26070 ft | 405 kts | 217° |
| 2026-04-29 09:17 | 39.46326 | 29.37195 | 26065 ft | 406 kts | 217° |
| 2026-04-29 09:17 | 39.43964 | 29.35188 | 26082 ft | 406 kts | 217° |
| 2026-04-29 09:18 | 39.41606 | 29.33187 | 26085 ft | 406 kts | 217° |
| 2026-04-29 09:18 | 39.39244 | 29.31183 | 26086 ft | 406 kts | 217° |
| 2026-04-29 09:18 | 39.36880 | 29.29184 | 26083 ft | 406 kts | 217° |
| 2026-04-29 09:18 | 39.34522 | 29.27187 | 26073 ft | 406 kts | 217° |
| 2026-04-29 09:19 | 39.32162 | 29.25186 | 26074 ft | 406 kts | 217° |
| 2026-04-29 09:19 | 39.29798 | 29.23182 | 26070 ft | 406 kts | 217° |
| 2026-04-29 09:19 | 39.27463 | 29.21201 | 26069 ft | 406 kts | 217° |
| 2026-04-29 09:19 | 39.25101 | 29.19199 | 26065 ft | 406 kts | 217° |
| 2026-04-29 09:20 | 39.22739 | 29.17198 | 26067 ft | 406 kts | 217° |
| 2026-04-29 09:20 | 39.20370 | 29.15197 | 26069 ft | 407 kts | 217° |
| 2026-04-29 09:20 | 39.18004 | 29.13204 | 26061 ft | 407 kts | 217° |
| 2026-04-29 09:20 | 39.15624 | 29.11205 | 26063 ft | 408 kts | 217° |
| 2026-04-29 09:21 | 39.13241 | 29.09204 | 26064 ft | 408 kts | 217° |
| 2026-04-29 09:21 | 39.10864 | 29.07206 | 26066 ft | 408 kts | 217° |
| 2026-04-29 09:21 | 39.08490 | 29.05206 | 26068 ft | 408 kts | 217° |
| 2026-04-29 09:21 | 39.06115 | 29.03204 | 26070 ft | 408 kts | 217° |
| 2026-04-29 09:22 | 39.03734 | 29.01198 | 26070 ft | 408 kts | 217° |
| 2026-04-29 09:22 | 39.01357 | 28.99202 | 26070 ft | 408 kts | 217° |
| 2026-04-29 09:22 | 38.98975 | 28.97207 | 26065 ft | 408 kts | 217° |
| 2026-04-29 09:22 | 38.96599 | 28.95216 | 26065 ft | 408 kts | 217° |
| 2026-04-29 09:23 | 38.94251 | 28.93250 | 26068 ft | 408 kts | 217° |
| 2026-04-29 09:23 | 38.91871 | 28.91259 | 26067 ft | 408 kts | 217° |
| 2026-04-29 09:23 | 38.89490 | 28.89271 | 26072 ft | 408 kts | 217° |
| 2026-04-29 09:23 | 38.87107 | 28.87284 | 26074 ft | 408 kts | 217° |
| 2026-04-29 09:24 | 38.84721 | 28.85295 | 26066 ft | 408 kts | 216° |
| 2026-04-29 09:24 | 38.82340 | 28.83306 | 26066 ft | 408 kts | 217° |
| 2026-04-29 09:24 | 38.80733 | 28.81963 | 26068 ft | 408 kts | 217° |
| 2026-04-29 09:24 | 38.78382 | 28.80002 | 26069 ft | 408 kts | 217° |
| 2026-04-29 09:25 | 38.75998 | 28.78020 | 26071 ft | 408 kts | 217° |
| 2026-04-29 09:25 | 38.73611 | 28.76039 | 26073 ft | 408 kts | 216° |
| 2026-04-29 09:25 | 38.71228 | 28.74063 | 26073 ft | 408 kts | 216° |
| 2026-04-29 09:25 | 38.68845 | 28.72086 | 26065 ft | 408 kts | 216° |
| 2026-04-29 09:26 | 38.66460 | 28.70109 | 26070 ft | 408 kts | 216° |
| 2026-04-29 09:26 | 38.64080 | 28.68134 | 26073 ft | 408 kts | 216° |
| 2026-04-29 09:26 | 38.61682 | 28.66187 | 26075 ft | 409 kts | 212° |
| 2026-04-29 09:26 | 38.59079 | 28.64690 | 26076 ft | 413 kts | 201° |
| 2026-04-29 09:27 | 38.56265 | 28.63830 | 26074 ft | 418 kts | 190° |
| 2026-04-29 09:27 | 38.53353 | 28.63659 | 26074 ft | 421 kts | 179° |
| 2026-04-29 09:27 | 38.50420 | 28.63909 | 26061 ft | 422 kts | 178° |
| 2026-04-29 09:27 | 38.47484 | 28.64164 | 26063 ft | 422 kts | 178° |
| 2026-04-29 09:28 | 38.44554 | 28.64416 | 26069 ft | 422 kts | 179° |
| 2026-04-29 09:28 | 38.41622 | 28.64663 | 26072 ft | 422 kts | 179° |
| 2026-04-29 09:28 | 38.38682 | 28.64906 | 26073 ft | 422 kts | 179° |
| 2026-04-29 09:28 | 38.35752 | 28.65147 | 26075 ft | 422 kts | 179° |
| 2026-04-29 09:29 | 38.32847 | 28.65384 | 26077 ft | 422 kts | 179° |
| 2026-04-29 09:29 | 38.26979 | 28.65864 | 26074 ft | 422 kts | 179° |
| 2026-04-29 09:29 | 38.24040 | 28.66105 | 26070 ft | 422 kts | 179° |
| 2026-04-29 09:30 | 38.21102 | 28.66344 | 26068 ft | 423 kts | 179° |
| 2026-04-29 09:30 | 38.18168 | 28.66582 | 26069 ft | 422 kts | 179° |
| 2026-04-29 09:30 | 38.15234 | 28.66823 | 26066 ft | 422 kts | 179° |
| 2026-04-29 09:30 | 38.12299 | 28.67066 | 26069 ft | 422 kts | 179° |
| 2026-04-29 09:31 | 38.09366 | 28.67306 | 26071 ft | 422 kts | 179° |
| 2026-04-29 09:31 | 38.06437 | 28.67545 | 26062 ft | 422 kts | 178° |
| 2026-04-29 09:31 | 38.03510 | 28.67781 | 26068 ft | 422 kts | 179° |
| 2026-04-29 09:31 | 38.00576 | 28.68018 | 26070 ft | 430 kts | 178° |
| 2026-04-29 09:32 | 37.97538 | 28.68268 | 26064 ft | 433 kts | 178° |
| 2026-04-29 09:32 | 37.94527 | 28.68517 | 26063 ft | 434 kts | 178° |
| 2026-04-29 09:32 | 37.91558 | 28.68761 | 26060 ft | 434 kts | 178° |
| 2026-04-29 09:32 | 37.88543 | 28.69007 | 26059 ft | 434 kts | 178° |
| 2026-04-29 09:33 | 37.85534 | 28.69251 | 26057 ft | 434 kts | 178° |
| 2026-04-29 09:33 | 37.82518 | 28.69496 | 26048 ft | 434 kts | 178° |
| 2026-04-29 09:33 | 37.79510 | 28.69741 | 26048 ft | 433 kts | 178° |
| 2026-04-29 09:33 | 37.76500 | 28.69987 | 26047 ft | 433 kts | 178° |
| 2026-04-29 09:34 | 37.73494 | 28.70232 | 26040 ft | 433 kts | 178° |
| 2026-04-29 09:34 | 37.70488 | 28.70477 | 26038 ft | 433 kts | 178° |
| 2026-04-29 09:34 | 37.67482 | 28.70724 | 26036 ft | 433 kts | 178° |
| 2026-04-29 09:34 | 37.64495 | 28.70969 | 25740 ft | 428 kts | 178° |
| 2026-04-29 09:35 | 37.61519 | 28.71210 | 25043 ft | 429 kts | 178° |
| 2026-04-29 09:35 | 37.58546 | 28.71450 | 24451 ft | 426 kts | 178° |
| 2026-04-29 09:35 | 37.55605 | 28.71684 | 23928 ft | 422 kts | 178° |
| 2026-04-29 09:35 | 37.52680 | 28.71913 | 23308 ft | 420 kts | 178° |
| 2026-04-29 09:36 | 37.49773 | 28.72144 | 22607 ft | 418 kts | 178° |
| 2026-04-29 09:36 | 37.46835 | 28.72378 | 21430 ft | 428 kts | 178° |
| 2026-04-29 09:36 | 37.43826 | 28.72617 | 20267 ft | 438 kts | 178° |
| 2026-04-29 09:36 | 37.40747 | 28.72861 | 19127 ft | 447 kts | 178° |
| 2026-04-29 09:37 | 37.37647 | 28.72601 | 17940 ft | 449 kts | 196° |
| 2026-04-29 09:37 | 37.34818 | 28.70982 | 16814 ft | 447 kts | 218° |
| 2026-04-29 09:37 | 37.32717 | 28.68201 | 16209 ft | 434 kts | 237° |
| 2026-04-29 09:37 | 37.31342 | 28.64879 | 15528 ft | 426 kts | 249° |
| 2026-04-29 09:38 | 37.30407 | 28.61371 | 14812 ft | 421 kts | 255° |
| 2026-04-29 09:38 | 37.29614 | 28.57847 | 14100 ft | 417 kts | 255° |
| 2026-04-29 09:38 | 37.28769 | 28.54378 | 13340 ft | 414 kts | 252° |
| 2026-04-29 09:38 | 37.27788 | 28.50988 | 12534 ft | 411 kts | 249° |
| 2026-04-29 09:39 | 37.26685 | 28.47698 | 11755 ft | 408 kts | 246° |
| 2026-04-29 09:39 | 37.25503 | 28.44477 | 10977 ft | 403 kts | 245° |
| 2026-04-29 09:39 | 37.24303 | 28.41338 | 10223 ft | 392 kts | 245° |
| 2026-04-29 09:39 | 37.23156 | 28.38362 | 9867 ft | 374 kts | 245° |
| 2026-04-29 09:40 | 37.22059 | 28.35483 | 9485 ft | 357 kts | 245° |
| 2026-04-29 09:40 | 37.21025 | 28.32719 | 9125 ft | 342 kts | 246° |
| 2026-04-29 09:40 | 37.20047 | 28.30058 | 8783 ft | 329 kts | 246° |
| 2026-04-29 09:40 | 37.19113 | 28.27488 | 8452 ft | 319 kts | 246° |
| 2026-04-29 09:41 | 37.18211 | 28.24989 | 8126 ft | 310 kts | 246° |
| 2026-04-29 09:41 | 37.17330 | 28.22555 | 7818 ft | 302 kts | 246° |
| 2026-04-29 09:41 | 37.16469 | 28.20188 | 7508 ft | 294 kts | 246° |
| 2026-04-29 09:41 | 37.15633 | 28.17895 | 7335 ft | 283 kts | 246° |
| 2026-04-29 09:42 | 37.14839 | 28.15721 | 7252 ft | 266 kts | 246° |
| 2026-04-29 09:42 | 37.14240 | 28.13633 | 7148 ft | 245 kts | 262° |
| 2026-04-29 09:42 | 37.14263 | 28.11606 | 7094 ft | 222 kts | 282° |
| 2026-04-29 09:42 | 37.14668 | 28.09836 | 7093 ft | 202 kts | 288° |
| 2026-04-29 09:43 | 37.15061 | 28.08226 | 7092 ft | 185 kts | 288° |
| 2026-04-29 09:43 | 37.15417 | 28.06759 | 7087 ft | 170 kts | 289° |
| 2026-04-29 09:43 | 37.15757 | 28.05360 | 7096 ft | 167 kts | 290° |
| 2026-04-29 09:43 | 37.16093 | 28.03978 | 7097 ft | 163 kts | 289° |
| 2026-04-29 09:44 | 37.16419 | 28.02634 | 7049 ft | 161 kts | 290° |
| 2026-04-29 09:44 | 37.16742 | 28.01304 | 6853 ft | 159 kts | 290° |
| 2026-04-29 09:44 | 37.17063 | 27.99982 | 6617 ft | 159 kts | 289° |
| 2026-04-29 09:44 | 37.17383 | 27.98661 | 6349 ft | 159 kts | 290° |
| 2026-04-29 09:45 | 37.17702 | 27.97339 | 6047 ft | 157 kts | 290° |
| 2026-04-29 09:45 | 37.18022 | 27.96019 | 5804 ft | 158 kts | 289° |
| 2026-04-29 09:45 | 37.18336 | 27.94720 | 5533 ft | 158 kts | 290° |
| 2026-04-29 09:45 | 37.18655 | 27.93400 | 5201 ft | 160 kts | 290° |
| 2026-04-29 09:46 | 37.19045 | 27.91847 | 4584 ft | 223 kts | 289° |
| 2026-04-29 09:46 | 37.19569 | 27.89750 | 4429 ft | 278 kts | 288° |
| 2026-04-29 09:46 | 37.20161 | 27.87192 | 3976 ft | 331 kts | 287° |
| 2026-04-29 09:46 | 37.20858 | 27.84256 | 3355 ft | 368 kts | 288° |
| 2026-04-29 09:47 | 37.21615 | 27.81126 | 3216 ft | 372 kts | 288° |
| 2026-04-29 09:47 | 37.22340 | 27.78055 | 2990 ft | 379 kts | 288° |
| 2026-04-29 09:47 | 37.23111 | 27.74755 | 2364 ft | 395 kts | 287° |
| 2026-04-29 09:47 | 37.23807 | 27.71675 | 3637 ft | 326 kts | 287° |
| 2026-04-29 09:48 | 37.24441 | 27.68975 | 4431 ft | 327 kts | 289° |
| 2026-04-29 09:48 | 37.25224 | 27.66253 | 4912 ft | 335 kts | 292° |
| 2026-04-29 09:48 | 37.26142 | 27.63587 | 5389 ft | 321 kts | 296° |
| 2026-04-29 09:48 | 37.27139 | 27.61132 | 5864 ft | 312 kts | 300° |
| 2026-04-29 09:49 | 37.28247 | 27.58797 | 6316 ft | 309 kts | 304° |
| 2026-04-29 09:49 | 37.29373 | 27.56711 | 6372 ft | 279 kts | 307° |
| 2026-04-29 09:49 | 37.30517 | 27.54796 | 5770 ft | 272 kts | 310° |
| 2026-04-29 09:49 | 37.31743 | 27.52963 | 4948 ft | 275 kts | 313° |
| 2026-04-29 09:50 | 37.33040 | 27.51145 | 4017 ft | 281 kts | 312° |
| 2026-04-29 09:50 | 37.34066 | 27.49178 | 3960 ft | 254 kts | 294° |
| 2026-04-29 09:50 | 37.34354 | 27.47171 | 4387 ft | 225 kts | 266° |
| 2026-04-29 09:50 | 37.33695 | 27.45394 | 4646 ft | 231 kts | 221° |
| 2026-04-29 09:51 | 37.32244 | 27.44697 | 4505 ft | 226 kts | 174° |
| 2026-04-29 09:51 | 37.30886 | 27.45475 | 4074 ft | 216 kts | 127° |
| 2026-04-29 09:51 | 37.30308 | 27.47154 | 3597 ft | 208 kts | 95° |
| 2026-04-29 09:51 | 37.30188 | 27.48941 | 3240 ft | 204 kts | 94° |
| 2026-04-29 09:52 | 37.29631 | 27.50636 | 2672 ft | 220 kts | 123° |
| 2026-04-29 09:52 | 37.28719 | 27.52290 | 1886 ft | 234 kts | 116° |
| 2026-04-29 09:52 | 37.28133 | 27.54133 | 1604 ft | 225 kts | 106° |
| 2026-04-29 09:52 | 37.27690 | 27.55990 | 1238 ft | 218 kts | 106° |
| 2026-04-29 09:53 | 37.27243 | 27.57763 | 884 ft | 215 kts | 108° |
| 2026-04-29 09:53 | 37.26838 | 27.59526 | 630 ft | 204 kts | 108° |
| 2026-04-29 09:53 | 37.26460 | 27.61208 | 480 ft | 195 kts | 110° |
| 2026-04-29 09:53 | 37.25996 | 27.62811 | 315 ft | 195 kts | 109° |
| 2026-04-29 09:54 | 37.25623 | 27.64444 | 113 ft | 193 kts | 108° |
| 2026-04-29 09:54 | 37.25252 | 27.65939 | 29 ft | 149 kts | 107° |
| 2026-04-29 09:54 | 37.25023 | 27.66899 | 29 ft | 85 kts | 107° |
| 2026-04-29 09:54 | 37.24926 | 27.67293 | 32 ft | 28 kts | 111° |
| 2026-04-29 09:55 | 37.24852 | 27.67456 | 33 ft | 11 kts | 130° |
| 2026-04-29 09:55 | 37.24805 | 27.67524 | 33 ft | 10 kts | 138° |
| 2026-04-29 09:55 | 37.24800 | 27.67529 | 33 ft | 0 kts | 141° |
| 2026-04-29 09:58 | 37.24792 | 27.67537 | 33 ft | 7 kts | 142° |
| 2026-04-29 09:58 | 37.24728 | 27.67600 | 33 ft | 12 kts | 142° |
| 2026-04-29 09:58 | 37.24663 | 27.67656 | 33 ft | 11 kts | 160° |
| 2026-04-29 09:58 | 37.24594 | 27.67642 | 32 ft | 10 kts | 199° |
| 2026-04-29 09:59 | 37.24527 | 27.67616 | 31 ft | 10 kts | 198° |
| 2026-04-29 09:59 | 37.24467 | 27.67593 | 31 ft | 8 kts | 196° |
| 2026-04-29 09:59 | 37.24443 | 27.67584 | 31 ft | 2 kts | 196° |
| 2026-04-29 09:59 | 37.24440 | 27.67583 | 31 ft | 0 kts | 196° |